createdAt,value
2018-08-14T00:01:18.694Z,95.54
2018-08-14T00:03:46.008Z,95.38
2018-08-14T00:06:13.350Z,95.16
2018-08-14T00:08:40.672Z,94.20
2018-08-14T00:11:08.135Z,94.55
2018-08-14T00:13:35.477Z,93.36
2018-08-14T00:16:02.860Z,93.88
2018-08-14T00:18:30.138Z,93.22
2018-08-14T00:20:57.570Z,93.53
2018-08-14T00:23:24.935Z,93.14
2018-08-14T00:25:52.264Z,93.63
2018-08-14T00:28:19.650Z,93.47
2018-08-14T00:30:46.944Z,92.67
2018-08-14T00:33:14.198Z,91.94
2018-08-14T00:35:41.603Z,92.00
2018-08-14T00:38:08.992Z,91.59
2018-08-14T00:40:36.486Z,91.17
2018-08-14T00:43:05.479Z,91.11
2018-08-14T00:45:32.855Z,91.49
2018-08-14T00:48:00.316Z,91.53
2018-08-14T00:50:27.653Z,91.80
2018-08-14T00:52:54.986Z,92.22
2018-08-14T00:55:22.994Z,92.37
2018-08-14T00:57:50.706Z,92.30
2018-08-14T01:00:21.226Z,91.65
2018-08-14T01:02:49.356Z,92.62
2018-08-14T01:05:17.265Z,92.58
2018-08-14T01:07:44.834Z,92.27
2018-08-14T01:10:13.197Z,92.88
2018-08-14T01:12:46.575Z,93.49
2018-08-14T01:15:15.370Z,94.26
2018-08-14T01:17:43.186Z,92.88
2018-08-14T01:20:11.988Z,92.64
2018-08-14T01:22:39.236Z,92.33
2018-08-14T01:25:06.867Z,93.15
2018-08-14T01:27:34.198Z,92.60
2018-08-14T01:30:01.601Z,92.27
2018-08-14T01:32:28.933Z,91.96
2018-08-14T01:34:56.474Z,91.57
2018-08-14T01:37:23.763Z,92.08
2018-08-14T01:39:51.183Z,91.49
2018-08-14T01:42:18.514Z,92.37
2018-08-14T01:44:45.856Z,92.80
2018-08-14T01:47:13.153Z,93.37
2018-08-14T01:49:40.433Z,93.48
2018-08-14T01:52:07.763Z,92.39
2018-08-14T01:54:35.149Z,92.92
2018-08-14T01:57:02.530Z,93.11
2018-08-14T01:59:29.831Z,92.91
2018-08-14T02:01:57.128Z,92.26
2018-08-14T02:04:24.415Z,92.87
2018-08-14T02:06:51.744Z,93.02
2018-08-14T02:09:19.197Z,93.21
2018-08-14T02:11:46.533Z,93.53
2018-08-14T02:14:13.779Z,94.04
2018-08-14T02:16:41.150Z,94.10
2018-08-14T02:19:08.502Z,93.09
2018-08-14T02:21:35.918Z,93.39
2018-08-14T02:24:03.260Z,93.14
2018-08-14T02:26:30.521Z,93.25
2018-08-14T02:28:57.826Z,93.27
2018-08-14T02:31:25.223Z,93.16
2018-08-14T02:33:52.761Z,93.24
2018-08-14T02:36:20.063Z,93.05
2018-08-14T02:38:47.364Z,93.66
2018-08-14T02:41:14.699Z,93.88
2018-08-14T02:43:42.043Z,94.27
2018-08-14T02:46:09.292Z,93.13
2018-08-14T02:48:36.667Z,93.36
2018-08-14T02:51:03.986Z,93.59
2018-08-14T02:53:31.331Z,92.42
2018-08-14T02:55:58.734Z,91.72
2018-08-14T02:58:25.960Z,92.19
2018-08-14T03:00:53.537Z,91.90
2018-08-14T03:03:20.732Z,91.93
2018-08-14T03:05:48.158Z,91.29
2018-08-14T03:08:15.394Z,91.48
2018-08-14T03:10:42.706Z,91.51
2018-08-14T03:13:10.006Z,92.08
2018-08-14T03:15:37.410Z,92.45
2018-08-14T03:18:04.905Z,92.74
2018-08-14T03:20:36.612Z,93.31
2018-08-14T03:23:03.920Z,93.53
2018-08-14T03:25:31.207Z,93.80
2018-08-14T03:27:58.460Z,94.70
2018-08-14T03:30:25.810Z,94.96
2018-08-14T03:32:53.141Z,94.31
2018-08-14T03:35:20.521Z,95.32
2018-08-14T03:37:47.919Z,94.87
2018-08-14T03:40:16.954Z,94.84
2018-08-14T03:42:45.347Z,95.11
2018-08-14T03:45:12.574Z,95.08
2018-08-14T03:47:39.956Z,94.10
2018-08-14T03:50:07.815Z,93.48
2018-08-14T03:52:35.127Z,93.68
2018-08-14T03:55:02.578Z,93.76
2018-08-14T03:57:29.867Z,93.50
2018-08-14T03:59:57.165Z,93.72
2018-08-14T04:02:24.520Z,92.91
2018-08-14T04:04:51.814Z,92.64
2018-08-14T04:07:19.200Z,93.53
2018-08-14T04:09:46.499Z,92.96
2018-08-14T04:12:13.756Z,93.03
2018-08-14T04:14:41.051Z,93.30
2018-08-14T04:17:08.357Z,92.52
2018-08-14T04:19:35.649Z,92.42
2018-08-14T04:22:02.971Z,91.67
2018-08-14T04:24:30.249Z,92.47
2018-08-14T04:26:57.500Z,91.95
2018-08-14T04:29:24.830Z,91.65
2018-08-14T04:31:52.072Z,92.47
2018-08-14T04:34:19.346Z,92.47
2018-08-14T04:36:46.719Z,92.84
2018-08-14T04:39:13.977Z,92.39
2018-08-14T04:41:41.349Z,92.27
2018-08-14T04:44:09.014Z,91.69
2018-08-14T04:46:36.410Z,91.83
2018-08-14T04:49:03.676Z,92.28
2018-08-14T04:51:31.052Z,92.07
2018-08-14T04:53:58.353Z,91.25
2018-08-14T04:56:25.620Z,92.80
2018-08-14T04:58:53.542Z,92.82
2018-08-14T05:01:20.857Z,92.59
2018-08-14T05:03:48.107Z,92.70
2018-08-14T05:06:15.463Z,93.77
2018-08-14T05:08:42.712Z,93.66
2018-08-14T05:11:10.006Z,93.09
2018-08-14T05:13:38.686Z,92.78
2018-08-14T05:16:06.164Z,92.28
2018-08-14T05:18:33.451Z,92.41
2018-08-14T05:21:00.754Z,92.16
2018-08-14T05:23:28.016Z,91.33
2018-08-14T05:25:55.337Z,91.48
2018-08-14T05:28:22.654Z,91.20
2018-08-14T05:30:49.898Z,90.42
2018-08-14T05:33:17.319Z,90.23
2018-08-14T05:35:44.586Z,89.66
2018-08-14T05:38:11.970Z,89.70
2018-08-14T05:40:39.343Z,89.72
2018-08-14T05:43:06.747Z,88.88
2018-08-14T05:45:34.042Z,87.71
2018-08-14T05:48:01.388Z,86.89
2018-08-14T05:50:28.721Z,87.75
2018-08-14T05:52:56.053Z,87.43
2018-08-14T05:55:23.309Z,86.30
2018-08-14T05:57:50.685Z,85.86
2018-08-14T06:00:18.649Z,85.57
2018-08-14T06:02:46.110Z,85.72
2018-08-14T06:05:13.461Z,84.42
2018-08-14T06:07:40.813Z,84.62
2018-08-14T06:10:09.079Z,84.26
2018-08-14T06:12:36.839Z,82.99
2018-08-14T06:15:06.336Z,83.51
2018-08-14T06:17:33.707Z,81.94
2018-08-14T06:20:01.063Z,80.92
2018-08-14T06:22:28.297Z,81.24
2018-08-14T06:24:55.610Z,80.90
2018-08-14T06:27:22.951Z,80.17
2018-08-14T06:29:50.274Z,80.46
2018-08-14T06:32:17.593Z,80.54
2018-08-14T06:34:44.959Z,80.66
2018-08-14T06:37:12.268Z,78.03
2018-08-14T06:39:39.493Z,77.60
2018-08-14T06:42:06.934Z,78.21
2018-08-14T06:47:36.716Z,78.53
2018-08-14T06:50:05.226Z,78.41
2018-08-14T06:52:32.487Z,77.03
2018-08-14T06:54:59.689Z,78.04
2018-08-14T06:57:26.964Z,77.95
2018-08-14T06:59:54.189Z,77.15
2018-08-14T07:02:21.496Z,75.79
2018-08-14T07:04:49.083Z,75.50
2018-08-14T07:07:16.405Z,72.55
2018-08-14T07:09:43.937Z,73.06
2018-08-14T07:12:11.279Z,72.89
2018-08-14T07:14:38.597Z,71.09
2018-08-14T07:17:05.898Z,71.02
2018-08-14T07:19:33.161Z,68.39
2018-08-14T07:22:00.635Z,67.46
2018-08-14T07:24:27.895Z,65.40
2018-08-14T07:26:55.232Z,65.33
2018-08-14T07:29:22.471Z,64.18
2018-08-14T07:31:49.750Z,64.38
2018-08-14T07:34:17.007Z,63.97
2018-08-14T07:36:44.380Z,62.87
2018-08-14T07:39:11.653Z,62.02
2018-08-14T07:41:38.916Z,62.36
2018-08-14T07:44:06.139Z,64.59
2018-08-14T07:46:33.934Z,62.88
2018-08-14T07:49:01.316Z,63.50
2018-08-14T07:51:28.615Z,63.99
2018-08-14T07:53:56.249Z,62.24
2018-08-14T07:56:23.461Z,62.07
2018-08-14T07:58:50.687Z,62.03
2018-08-14T08:01:17.931Z,62.24
2018-08-14T08:03:45.232Z,62.57
2018-08-14T08:06:12.473Z,62.09
2018-08-14T08:08:39.803Z,63.12
2018-08-14T08:11:07.168Z,63.02
2018-08-14T08:13:34.459Z,60.29
2018-08-14T08:16:01.732Z,60.64
2018-08-14T08:18:29.030Z,61.51
2018-08-14T08:20:56.225Z,61.21
2018-08-14T08:23:23.576Z,61.11
2018-08-14T08:25:50.937Z,61.23
2018-08-14T08:28:18.206Z,61.30
2018-08-14T08:30:45.537Z,60.31
2018-08-14T08:33:12.804Z,59.62
2018-08-14T08:35:40.158Z,59.50
2018-08-14T08:38:07.489Z,59.58
2018-08-14T08:40:34.764Z,58.72
2018-08-14T08:43:02.455Z,59.49
2018-08-14T08:45:29.753Z,59.53
2018-08-14T08:48:08.403Z,60.18
2018-08-14T08:50:35.685Z,59.99
2018-08-14T08:53:02.991Z,58.44
2018-08-14T08:55:30.294Z,57.78
2018-08-14T08:57:57.571Z,57.05
2018-08-14T09:00:24.959Z,58.79
2018-08-14T09:02:52.184Z,58.75
2018-08-14T09:05:19.460Z,57.82
2018-08-14T09:07:47.022Z,58.07
2018-08-14T09:10:14.232Z,59.26
2018-08-14T09:12:42.153Z,57.54
2018-08-14T09:15:10.103Z,58.00
2018-08-14T09:17:38.306Z,57.44
2018-08-14T09:20:06.727Z,57.43
2018-08-14T09:22:34.175Z,56.98
2018-08-14T09:25:01.385Z,54.17
2018-08-14T09:27:33.887Z,56.45
2018-08-14T09:30:01.207Z,56.55
2018-08-14T09:32:29.576Z,57.87
2018-08-14T09:34:56.969Z,56.46
2018-08-14T09:37:24.560Z,54.76
2018-08-14T09:39:52.626Z,51.29
2018-08-14T09:42:19.968Z,51.48
2018-08-14T09:44:48.153Z,53.36
2018-08-14T09:47:15.460Z,52.59
2018-08-14T09:49:42.732Z,51.34
2018-08-14T09:52:10.229Z,50.93
2018-08-14T09:54:40.384Z,51.05
2018-08-14T09:57:07.881Z,49.93
2018-08-14T09:59:35.208Z,52.09
2018-08-14T10:02:08.024Z,52.27
2018-08-14T10:04:41.027Z,51.53
2018-08-14T10:07:13.833Z,53.42
2018-08-14T10:09:41.124Z,53.62
2018-08-14T10:12:08.436Z,53.33
2018-08-14T10:14:41.224Z,53.91
2018-08-14T10:17:12.250Z,53.83
2018-08-14T10:19:39.645Z,52.33
2018-08-14T10:22:07.425Z,50.74
2018-08-14T10:24:34.772Z,51.52
2018-08-14T10:27:02.021Z,51.87
2018-08-14T10:29:29.356Z,51.82
2018-08-14T10:32:07.406Z,50.47
2018-08-14T10:34:35.364Z,49.21
2018-08-14T10:37:05.284Z,48.05
2018-08-14T10:39:32.615Z,50.26
2018-08-14T10:41:59.885Z,49.22
2018-08-14T10:44:27.183Z,50.90
2018-08-14T10:46:54.506Z,50.24
2018-08-14T10:49:21.808Z,46.66
2018-08-14T10:51:49.133Z,47.04
2018-08-14T10:54:16.558Z,46.07
2018-08-14T10:56:43.887Z,48.03
2018-08-14T10:59:11.179Z,51.10
2018-08-14T11:01:40.024Z,50.11
2018-08-14T11:04:07.273Z,51.16
2018-08-14T11:06:34.520Z,50.25
2018-08-14T11:09:01.942Z,49.66
2018-08-14T11:11:29.745Z,49.79
2018-08-14T11:13:57.368Z,50.67
2018-08-14T11:16:24.984Z,48.25
2018-08-14T11:18:52.483Z,45.89
2018-08-14T11:21:19.976Z,47.03
2018-08-14T11:23:47.235Z,45.93
2018-08-14T11:26:14.508Z,43.51
2018-08-14T11:28:41.859Z,42.32
2018-08-14T11:31:09.090Z,44.19
2018-08-14T11:33:36.451Z,45.96
2018-08-14T11:36:05.223Z,47.32
2018-08-14T11:38:32.795Z,48.05
2018-08-14T11:41:00.123Z,50.31
2018-08-14T11:43:27.469Z,49.34
2018-08-14T11:45:54.774Z,49.33
2018-08-14T11:48:22.036Z,48.04
2018-08-14T11:50:49.320Z,45.90
2018-08-14T11:53:16.596Z,47.01
2018-08-14T11:55:43.888Z,47.60
2018-08-14T11:58:11.174Z,49.32
2018-08-14T12:00:38.464Z,49.47
2018-08-14T12:03:06.756Z,50.07
2018-08-14T12:05:34.151Z,49.16
2018-08-14T12:08:01.350Z,49.14
2018-08-14T12:10:28.648Z,49.93
2018-08-14T12:12:55.983Z,48.97
2018-08-14T12:15:23.298Z,46.77
2018-08-14T12:17:50.559Z,48.46
2018-08-14T12:20:19.283Z,49.72
2018-08-14T12:22:46.582Z,48.41
2018-08-14T12:25:15.221Z,47.03
2018-08-14T12:27:42.615Z,46.33
2018-08-14T12:30:11.697Z,45.79
2018-08-14T12:32:38.977Z,46.37
2018-08-14T12:35:06.595Z,48.04
2018-08-14T12:37:33.906Z,48.19
2018-08-14T12:40:01.210Z,47.89
2018-08-14T12:42:28.482Z,47.45
2018-08-14T12:44:55.829Z,48.38
2018-08-14T12:47:23.870Z,47.38
2018-08-14T12:49:51.307Z,46.21
2018-08-14T12:52:18.600Z,45.84
2018-08-14T12:54:46.381Z,46.46
2018-08-14T12:57:13.649Z,47.82
2018-08-14T12:59:41.189Z,49.22
2018-08-14T13:02:08.497Z,49.33
2018-08-14T13:04:36.167Z,50.74
2018-08-14T13:07:03.523Z,50.08
2018-08-14T13:09:30.841Z,50.44
2018-08-14T13:11:58.076Z,50.48
2018-08-14T13:14:25.326Z,50.29
2018-08-14T13:16:52.670Z,50.40
2018-08-14T13:19:19.973Z,50.60
2018-08-14T13:21:47.224Z,49.16
2018-08-14T13:24:14.518Z,50.00
2018-08-14T13:26:41.880Z,49.15
2018-08-14T13:29:09.181Z,49.30
2018-08-14T13:31:36.487Z,49.22
2018-08-14T13:34:03.895Z,49.34
2018-08-14T13:36:31.172Z,49.47
2018-08-14T13:38:58.497Z,48.35
2018-08-14T13:41:25.750Z,49.78
2018-08-14T13:43:53.166Z,49.52
2018-08-14T13:46:20.450Z,47.95
2018-08-14T13:48:47.725Z,48.66
2018-08-14T13:51:15.070Z,49.48
2018-08-14T13:53:42.405Z,49.37
2018-08-14T13:56:09.633Z,48.39
2018-08-14T13:58:36.975Z,47.51
2018-08-14T14:01:04.255Z,47.71
2018-08-14T14:03:31.548Z,48.82
2018-08-14T14:05:58.853Z,48.67
2018-08-14T14:08:26.130Z,48.22
2018-08-14T14:10:53.493Z,48.96
2018-08-14T14:13:20.856Z,49.33
2018-08-14T14:15:48.080Z,48.42
2018-08-14T14:18:15.317Z,49.82
2018-08-14T14:20:42.573Z,49.68
2018-08-14T14:23:09.920Z,49.12
2018-08-14T14:25:37.239Z,49.52
2018-08-14T14:28:04.821Z,50.11
2018-08-14T14:30:32.170Z,51.13
2018-08-14T14:32:59.450Z,50.70
2018-08-14T14:35:26.930Z,50.98
2018-08-14T14:37:54.259Z,51.34
2018-08-14T14:40:23.497Z,51.80
2018-08-14T14:42:56.213Z,51.76
2018-08-14T14:45:23.545Z,51.93
2018-08-14T14:47:50.870Z,51.80
2018-08-14T14:50:18.150Z,52.22
2018-08-14T14:52:45.607Z,52.89
2018-08-14T14:55:14.722Z,53.70
2018-08-14T14:57:42.371Z,52.90
2018-08-14T15:00:16.098Z,53.23
2018-08-14T15:02:43.778Z,53.71
2018-08-14T15:05:11.139Z,53.97
2018-08-14T15:07:38.563Z,54.45
2018-08-14T15:10:06.141Z,54.77
2018-08-14T15:12:33.406Z,54.28
2018-08-14T15:15:00.676Z,55.21
2018-08-14T15:17:28.009Z,55.49
2018-08-14T15:19:55.324Z,56.10
2018-08-14T15:22:22.590Z,56.77
2018-08-14T15:24:49.857Z,55.88
2018-08-14T15:27:17.193Z,56.19
2018-08-14T15:29:44.476Z,56.53
2018-08-14T15:32:11.788Z,56.63
2018-08-14T15:34:39.043Z,57.04
2018-08-14T15:37:08.415Z,55.13
2018-08-14T15:39:35.663Z,53.38
2018-08-14T15:42:03.055Z,51.33
2018-08-14T15:44:30.347Z,48.90
2018-08-14T15:46:57.670Z,49.08
2018-08-14T15:49:25.035Z,49.67
2018-08-14T15:51:52.422Z,50.29
2018-08-14T15:54:19.765Z,49.76
2018-08-14T15:56:47.847Z,49.62
2018-08-14T15:59:15.330Z,48.52
2018-08-14T16:01:45.555Z,48.66
2018-08-14T16:04:13.600Z,49.58
2018-08-14T16:06:40.905Z,48.10
2018-08-14T16:09:10.552Z,49.30
2018-08-14T16:11:37.901Z,48.86
2018-08-14T16:14:05.191Z,48.30
2018-08-14T16:16:32.499Z,48.43
2018-08-14T16:18:59.758Z,49.45
2018-08-14T16:21:27.045Z,50.31
2018-08-14T16:23:54.302Z,52.05
2018-08-14T16:26:21.800Z,52.29
2018-08-14T16:28:49.149Z,52.67
2018-08-14T16:31:16.405Z,52.46
2018-08-14T16:33:43.666Z,53.06
2018-08-14T16:36:10.968Z,53.32
2018-08-14T16:38:39.225Z,53.70
2018-08-14T16:41:09.641Z,53.19
2018-08-14T16:43:37.920Z,53.57
2018-08-14T16:46:05.864Z,53.53
2018-08-14T16:48:34.276Z,54.27
2018-08-14T16:51:02.341Z,53.91
2018-08-14T16:53:31.936Z,54.58
2018-08-14T16:55:59.690Z,54.05
2018-08-14T16:58:27.618Z,54.53
2018-08-14T17:00:56.528Z,54.34
2018-08-14T17:03:26.998Z,54.63
2018-08-14T17:05:56.093Z,54.85
2018-08-14T17:08:24.129Z,53.97
2018-08-14T17:10:52.074Z,54.87
2018-08-14T17:13:19.987Z,55.16
2018-08-14T17:15:48.685Z,54.97
2018-08-14T17:18:16.905Z,55.96
2018-08-14T17:20:43.735Z,55.88
2018-08-14T17:23:11.805Z,55.71
2018-08-14T17:25:39.989Z,55.89
2018-08-14T17:28:07.665Z,56.76
2018-08-14T17:30:35.555Z,56.25
2018-08-14T17:33:03.335Z,57.18
2018-08-14T17:35:32.155Z,56.52
2018-08-14T17:37:59.779Z,56.72
2018-08-14T17:40:27.213Z,57.13
2018-08-14T17:42:54.827Z,57.29
2018-08-14T17:45:28.132Z,57.16
2018-08-14T17:47:57.089Z,56.32
2018-08-14T17:50:25.257Z,55.67
2018-08-14T17:52:53.000Z,55.93
2018-08-14T17:55:22.739Z,56.52
2018-08-14T17:57:50.526Z,56.92
2018-08-14T18:00:22.436Z,56.97
2018-08-14T18:02:52.914Z,57.97
2018-08-14T18:05:20.355Z,57.82
2018-08-14T18:07:47.813Z,57.47
2018-08-14T18:10:17.207Z,58.60
2018-08-14T18:12:45.026Z,58.98
2018-08-14T18:15:13.619Z,59.17
2018-08-14T18:17:41.550Z,59.68
2018-08-14T18:20:13.288Z,60.27
2018-08-14T18:22:41.148Z,60.53
2018-08-14T18:25:09.717Z,61.07
2018-08-14T18:27:38.155Z,60.75
2018-08-14T18:30:07.373Z,61.41
2018-08-14T18:32:35.785Z,61.67
2018-08-14T18:35:03.945Z,61.99
2018-08-14T18:37:31.368Z,62.27
2018-08-14T18:39:58.699Z,62.09
2018-08-14T18:42:26.120Z,62.11
2018-08-14T18:44:53.316Z,62.10
2018-08-14T18:47:20.677Z,62.14
2018-08-14T18:49:47.971Z,62.42
2018-08-14T18:54:49.042Z,62.69
2018-08-14T18:57:16.372Z,63.15
2018-08-14T18:59:43.624Z,63.59
2018-08-14T19:02:10.972Z,63.50
2018-08-14T19:04:38.346Z,63.84
2018-08-14T19:07:05.609Z,64.06
2018-08-14T19:09:32.886Z,63.93
2018-08-14T19:12:00.112Z,63.97
2018-08-14T19:14:27.394Z,64.20
2018-08-14T19:16:54.677Z,64.32
2018-08-14T19:19:22.018Z,64.97
2018-08-14T19:21:49.363Z,65.33
2018-08-14T19:24:16.760Z,65.55
2018-08-14T19:26:44.134Z,65.89
2018-08-14T19:29:11.391Z,66.01
2018-08-14T19:31:38.937Z,66.29
2018-08-14T19:34:06.156Z,66.75
2018-08-14T19:36:33.489Z,66.73
2018-08-14T19:39:00.948Z,67.15
2018-08-14T19:41:28.297Z,67.27
2018-08-14T19:43:55.614Z,67.35
2018-08-14T19:46:22.884Z,67.25
2018-08-14T19:48:50.189Z,67.56
2018-08-14T19:51:17.468Z,67.54
2018-08-14T19:53:44.792Z,67.75
2018-08-14T19:56:12.132Z,67.75
2018-08-14T19:58:39.469Z,68.01
2018-08-14T20:01:06.789Z,67.88
2018-08-14T20:03:34.965Z,68.17
2018-08-14T20:06:02.279Z,68.66
2018-08-14T20:08:29.587Z,69.26
2018-08-14T20:10:56.900Z,70.06
2018-08-14T20:13:24.186Z,70.24
2018-08-14T20:15:56.950Z,70.40
2018-08-14T20:18:24.270Z,70.86
2018-08-14T20:20:51.579Z,70.50
2018-08-14T20:23:18.898Z,70.69
2018-08-14T20:25:46.233Z,70.97
2018-08-14T20:28:13.610Z,71.17
2018-08-14T20:30:40.918Z,70.91
2018-08-14T20:33:08.220Z,71.11
2018-08-14T20:35:35.491Z,70.88
2018-08-14T20:38:02.815Z,70.84
2018-08-14T20:40:30.160Z,71.21
2018-08-14T20:42:57.392Z,71.45
2018-08-14T20:45:24.695Z,71.67
2018-08-14T20:47:52.042Z,72.05
2018-08-14T20:50:19.644Z,72.86
2018-08-14T20:52:47.403Z,72.77
2018-08-14T20:55:15.166Z,73.24
2018-08-14T20:57:42.912Z,73.84
2018-08-14T21:00:13.385Z,73.58
2018-08-14T21:02:40.675Z,73.67
2018-08-14T21:05:08.033Z,72.86
2018-08-14T21:07:35.429Z,73.18
2018-08-14T21:10:02.746Z,72.90
2018-08-14T21:12:35.590Z,73.31
2018-08-14T21:15:03.329Z,73.90
2018-08-14T21:17:30.685Z,74.23
2018-08-14T21:19:57.913Z,74.74
2018-08-14T21:22:25.211Z,75.15
2018-08-14T21:24:52.590Z,74.82
2018-08-14T21:27:19.880Z,75.25
2018-08-14T21:29:47.156Z,76.12
2018-08-14T21:32:14.476Z,76.14
2018-08-14T21:34:41.942Z,75.51
2018-08-14T21:37:09.400Z,76.66
2018-08-14T21:39:36.659Z,75.69
2018-08-14T21:42:03.945Z,75.60
2018-08-14T21:44:31.247Z,75.43
2018-08-14T21:46:58.582Z,75.97
2018-08-14T21:49:25.815Z,75.94
2018-08-14T21:51:53.211Z,76.90
2018-08-14T21:54:20.528Z,77.21
2018-08-14T21:56:47.760Z,76.48
2018-08-14T21:59:15.160Z,77.12
2018-08-14T22:01:44.133Z,76.37
2018-08-14T22:04:11.536Z,76.66
2018-08-14T22:06:38.896Z,76.95
2018-08-14T22:09:07.035Z,77.24
2018-08-14T22:11:34.361Z,77.53
2018-08-14T22:14:01.741Z,76.89
2018-08-14T22:16:28.998Z,77.32
2018-08-14T22:18:56.387Z,77.14
2018-08-14T22:21:23.766Z,77.89
2018-08-14T22:23:51.025Z,77.52
2018-08-14T22:26:18.358Z,77.65
2018-08-14T22:28:45.685Z,77.80
2018-08-14T22:31:13.018Z,77.77
2018-08-14T22:33:40.256Z,78.44
2018-08-14T22:36:07.553Z,77.88
2018-08-14T22:38:34.835Z,78.19
2018-08-14T22:41:02.124Z,78.24
2018-08-14T22:43:29.418Z,77.88
2018-08-14T22:45:56.656Z,77.96
2018-08-14T22:48:23.979Z,78.15
2018-08-14T22:50:51.242Z,78.53
2018-08-14T22:53:18.576Z,78.89
2018-08-14T22:55:45.797Z,78.43
2018-08-14T22:58:13.082Z,79.13
2018-08-14T23:00:40.402Z,78.47
2018-08-14T23:03:07.760Z,78.77
2018-08-14T23:05:35.038Z,78.94
2018-08-14T23:08:02.300Z,78.36
2018-08-14T23:10:29.656Z,78.55
2018-08-14T23:12:56.876Z,78.23
2018-08-14T23:15:24.123Z,77.95
2018-08-14T23:17:51.383Z,77.78
2018-08-14T23:20:18.660Z,77.26
2018-08-14T23:22:45.964Z,78.09
2018-08-14T23:25:13.435Z,78.11
2018-08-14T23:27:40.679Z,78.94
2018-08-14T23:30:09.921Z,78.19
2018-08-14T23:32:37.387Z,78.70
2018-08-14T23:35:05.119Z,78.28
2018-08-14T23:37:32.428Z,77.90
2018-08-14T23:39:59.718Z,78.70
2018-08-14T23:42:27.038Z,78.31
2018-08-14T23:44:54.377Z,78.47
2018-08-14T23:47:21.631Z,79.24
2018-08-14T23:49:49.012Z,78.95
2018-08-14T23:52:16.354Z,79.09
2018-08-14T23:54:43.641Z,79.58
2018-08-14T23:57:10.934Z,79.02
2018-08-14T23:59:38.256Z,79.14
